createdAt,value
2022-12-17T00:01:03.369Z,12.1
2022-12-17T00:06:01.273Z,12.1
2022-12-17T00:10:59.377Z,11.9
2022-12-17T00:15:57.562Z,11.8
2022-12-17T00:20:55.667Z,11.8
2022-12-17T00:25:53.719Z,11.6
2022-12-17T00:30:51.945Z,11.6
2022-12-17T00:35:49.918Z,11.4
2022-12-17T00:40:48.285Z,11.4
2022-12-17T00:45:46.712Z,11.4
2022-12-17T00:50:45.209Z,11.4
2022-12-17T00:55:43.467Z,11.3
2022-12-17T01:00:41.829Z,11.2
2022-12-17T01:05:39.827Z,11.1
2022-12-17T01:10:38.091Z,11
2022-12-17T01:15:36.437Z,11
2022-12-17T01:20:35.000Z,11.1
2022-12-17T01:25:33.282Z,11.1
2022-12-17T01:30:31.804Z,11.1
2022-12-17T01:35:30.300Z,11.2
2022-12-17T01:40:28.592Z,11.2
2022-12-17T01:45:26.713Z,11.1
2022-12-17T01:50:24.848Z,10.9
2022-12-17T01:55:22.924Z,10.8
2022-12-17T02:00:21.003Z,10.7
2022-12-17T02:05:19.392Z,10.6
2022-12-17T02:10:17.462Z,10.4
2022-12-17T02:15:15.550Z,10.4
2022-12-17T02:20:13.632Z,10.4
2022-12-17T02:25:11.862Z,10.4
2022-12-17T02:30:10.131Z,10.4
2022-12-17T02:35:08.040Z,10.2
2022-12-17T02:40:06.109Z,10
2022-12-17T02:45:04.317Z,10.1
2022-12-17T02:50:02.410Z,10.1
2022-12-17T02:55:00.476Z,10.1
2022-12-17T02:59:58.701Z,10
2022-12-17T03:05:00.248Z,10
2022-12-17T03:09:55.229Z,10.1
2022-12-17T03:14:53.420Z,10.1
2022-12-17T03:19:51.640Z,10.2
2022-12-17T03:24:49.969Z,10.2
2022-12-17T03:29:47.999Z,10.2
2022-12-17T03:34:46.414Z,10.3
2022-12-17T03:39:44.647Z,10.2
2022-12-17T03:44:42.992Z,10.4
2022-12-17T03:49:41.229Z,10.4
2022-12-17T03:54:39.279Z,10.5
2022-12-17T03:59:37.464Z,10.6
2022-12-17T04:04:35.647Z,10.6
2022-12-17T04:09:34.001Z,10.6
2022-12-17T04:14:32.375Z,10.7
2022-12-17T04:19:30.601Z,10.5
2022-12-17T04:24:28.762Z,10.4
2022-12-17T04:29:27.662Z,10.4
2022-12-17T04:34:26.327Z,10.3
2022-12-17T04:39:24.597Z,10.2
2022-12-17T04:44:22.957Z,10.1
2022-12-17T04:49:21.218Z,10
2022-12-17T04:54:19.390Z,10
2022-12-17T04:59:17.608Z,10.1
2022-12-17T05:04:15.704Z,9.9
2022-12-17T05:09:13.935Z,9.8
2022-12-17T05:14:12.038Z,9.8
2022-12-17T05:19:09.972Z,9.7
2022-12-17T05:24:08.309Z,9.6
2022-12-17T05:29:07.215Z,9.6
2022-12-17T05:34:04.633Z,9.5
2022-12-17T05:39:03.133Z,9.7
2022-12-17T05:44:01.665Z,9.8
2022-12-17T05:49:00.034Z,10.1
2022-12-17T05:53:58.337Z,10.2
2022-12-17T05:58:56.634Z,10.3
2022-12-17T06:03:54.869Z,10.3
2022-12-17T06:08:53.207Z,10.5
2022-12-17T06:13:51.479Z,10.6
2022-12-17T06:18:52.700Z,11.1
2022-12-17T06:23:50.676Z,11.4
2022-12-17T06:28:49.090Z,11.6
2022-12-17T06:33:47.517Z,11.8
2022-12-17T06:38:46.012Z,12.4
2022-12-17T06:43:44.792Z,13.1
2022-12-17T06:48:43.415Z,13.4
2022-12-17T06:53:41.526Z,13.1
2022-12-17T06:58:39.472Z,12.8
2022-12-17T07:03:37.607Z,12.2
2022-12-17T07:08:35.256Z,11.8
2022-12-17T07:13:33.667Z,11.9
2022-12-17T07:18:31.676Z,11.8
2022-12-17T07:23:29.763Z,11.7
2022-12-17T07:28:28.039Z,11.6
2022-12-17T07:33:26.333Z,11.6
2022-12-17T07:38:24.857Z,11.7
2022-12-17T07:43:23.355Z,12
2022-12-17T07:48:21.784Z,12
2022-12-17T07:53:19.824Z,11.9
2022-12-17T07:58:18.064Z,12.3
2022-12-17T08:03:15.141Z,12.5
2022-12-17T08:08:13.782Z,13
2022-12-17T08:13:14.152Z,13.5
2022-12-17T08:18:11.078Z,14
2022-12-17T08:23:12.813Z,19.3
2022-12-17T08:28:33.771Z,19.3
2022-12-17T08:33:08.848Z,17.3
2022-12-17T08:38:06.945Z,17.7
2022-12-17T08:43:04.571Z,16.3
2022-12-17T08:48:04.015Z,16.3
2022-12-17T08:53:00.439Z,17.2
2022-12-17T08:57:58.482Z,16.6
2022-12-17T09:02:56.977Z,16.5
2022-12-17T09:07:53.800Z,15.2
2022-12-17T09:12:51.261Z,14.3
2022-12-17T09:17:49.057Z,14.3
2022-12-17T09:22:46.936Z,14.2
2022-12-17T09:27:45.238Z,14.2
2022-12-17T09:32:43.111Z,13.9
2022-12-17T09:37:41.250Z,13.9
2022-12-17T09:42:39.245Z,13.8
2022-12-17T09:47:37.360Z,13.8
2022-12-17T09:52:35.828Z,13.6
2022-12-17T09:57:33.739Z,13.6
2022-12-17T10:02:32.368Z,13.3
2022-12-17T10:07:30.897Z,13.5
2022-12-17T10:12:28.796Z,13.3
2022-12-17T10:17:26.742Z,12.6
2022-12-17T10:22:24.864Z,12.2
2022-12-17T10:27:23.183Z,11.6
2022-12-17T10:32:21.402Z,12.2
2022-12-17T10:37:20.672Z,13.4
2022-12-17T10:42:21.209Z,16
2022-12-17T10:47:26.782Z,22
2022-12-17T10:52:25.699Z,20.2
2022-12-17T10:57:23.302Z,19.2
2022-12-17T11:02:22.081Z,19.5
2022-12-17T11:07:20.404Z,18.6
2022-12-17T11:12:17.401Z,16.2
2022-12-17T11:17:15.607Z,16
2022-12-17T11:22:14.566Z,16.1
2022-12-17T11:27:13.338Z,16.1
2022-12-17T11:32:11.568Z,15.8
2022-12-17T11:37:10.739Z,14.6
2022-12-17T11:42:11.366Z,14.6
2022-12-17T11:47:06.825Z,14.2
2022-12-17T11:52:05.107Z,13.4
2022-12-17T11:57:06.980Z,12.2
2022-12-17T12:02:05.501Z,12.2
2022-12-17T12:07:04.332Z,13.5
2022-12-17T12:12:04.011Z,14.6
2022-12-17T12:17:02.965Z,15.4
2022-12-17T12:22:00.964Z,15.1
2022-12-17T12:26:58.882Z,14.6
2022-12-17T12:31:57.180Z,14.3
2022-12-17T12:36:55.385Z,14.3
2022-12-17T12:41:58.170Z,14.4
2022-12-17T12:46:56.195Z,15.2
2022-12-17T12:51:55.139Z,15.3
2022-12-17T12:56:54.065Z,15.9
2022-12-17T13:01:53.164Z,15.7
2022-12-17T13:06:51.551Z,15.7
2022-12-17T13:11:51.007Z,15.4
2022-12-17T13:16:48.982Z,15.5
2022-12-17T13:21:47.906Z,15.5
2022-12-17T13:26:47.665Z,15.6
2022-12-17T13:31:46.412Z,15.4
2022-12-17T13:36:44.569Z,15.3
2022-12-17T13:41:42.236Z,15.2
2022-12-17T13:46:45.145Z,15.2
2022-12-17T13:51:38.599Z,15.2
2022-12-17T13:56:36.484Z,14.7
2022-12-17T14:01:34.497Z,14.3
2022-12-17T14:06:32.421Z,14
2022-12-17T14:11:30.297Z,13.7
2022-12-17T14:16:28.467Z,13.4
2022-12-17T14:21:26.382Z,13.1
2022-12-17T14:26:25.034Z,12.8
2022-12-17T14:31:27.433Z,12.3
2022-12-17T14:36:20.317Z,11.9
2022-12-17T14:41:18.502Z,11.6
2022-12-17T14:46:16.653Z,11.3
2022-12-17T14:51:14.454Z,10.9
2022-12-17T14:56:12.044Z,10.9
2022-12-17T15:01:10.421Z,11
2022-12-17T15:06:08.760Z,10.8
2022-12-17T15:11:06.514Z,10.7
2022-12-17T15:16:04.840Z,9.8
2022-12-17T15:21:02.924Z,9.8
2022-12-17T15:26:01.468Z,9.2
2022-12-17T15:31:00.449Z,9.4
2022-12-17T15:35:58.926Z,9.4
2022-12-17T15:40:57.469Z,9.8
2022-12-17T15:45:56.123Z,10.2
2022-12-17T15:50:54.482Z,10.6
2022-12-17T15:55:53.190Z,10.8
2022-12-17T16:00:51.635Z,10.8
2022-12-17T16:05:49.615Z,10.7
2022-12-17T16:10:48.240Z,10.5
2022-12-17T16:15:47.184Z,10.7
2022-12-17T16:20:45.336Z,10.7
2022-12-17T16:25:43.663Z,10.4
2022-12-17T16:30:41.956Z,10.7
2022-12-17T16:35:40.346Z,10.3
2022-12-17T16:40:38.744Z,10.7
2022-12-17T16:45:37.306Z,10.7
2022-12-17T16:50:36.162Z,10.6
2022-12-17T16:55:34.512Z,10.3
2022-12-17T17:00:32.778Z,9.9
2022-12-17T17:05:31.176Z,9.2
2022-12-17T17:10:28.992Z,9.3
2022-12-17T17:15:27.627Z,9
2022-12-17T17:20:26.265Z,8.6
2022-12-17T17:25:31.075Z,8.6
2022-12-17T17:30:23.661Z,8.2
2022-12-17T17:35:22.109Z,8.5
2022-12-17T17:40:20.620Z,8.5
2022-12-17T17:45:18.822Z,8.5
2022-12-17T17:50:17.105Z,8.4
2022-12-17T17:55:15.214Z,8.4
2022-12-17T18:00:13.674Z,8.3
2022-12-17T18:05:11.932Z,8.2
2022-12-17T18:10:10.020Z,8.1
2022-12-17T18:15:17.151Z,8.1
2022-12-17T18:20:06.286Z,8
2022-12-17T18:25:04.710Z,8.1
2022-12-17T18:30:03.018Z,8.1
2022-12-17T18:35:01.412Z,8.1
2022-12-17T18:39:59.735Z,8.1
2022-12-17T18:44:58.309Z,7.9
2022-12-17T18:49:57.358Z,7.7
2022-12-17T18:54:54.669Z,7.5
2022-12-17T18:59:54.909Z,7.3
2022-12-17T19:04:52.715Z,7.4
2022-12-17T19:09:50.698Z,7.3
2022-12-17T19:14:49.038Z,7.3
2022-12-17T19:19:47.459Z,7.3
2022-12-17T19:24:45.983Z,7.4
2022-12-17T19:29:49.099Z,7.3
2022-12-17T19:34:42.172Z,7.2
2022-12-17T19:39:40.854Z,7.2
2022-12-17T19:44:40.447Z,7.1
2022-12-17T19:49:38.857Z,7.1
2022-12-17T19:54:37.312Z,7.2
2022-12-17T19:59:35.560Z,7.2
2022-12-17T20:04:34.085Z,7.2
2022-12-17T20:09:32.417Z,7.2
2022-12-17T20:14:30.488Z,7.3
2022-12-17T20:19:28.921Z,7.3
2022-12-17T20:24:30.971Z,7.3
2022-12-17T20:29:24.685Z,7.2
2022-12-17T20:34:22.898Z,7
2022-12-17T20:39:26.431Z,6.8
2022-12-17T20:44:19.139Z,6.7
2022-12-17T20:49:17.228Z,6.6
2022-12-17T20:54:15.601Z,6.4
2022-12-17T20:59:14.003Z,6.4
2022-12-17T21:04:12.379Z,6.5
2022-12-17T21:09:10.547Z,6.5
2022-12-17T21:14:09.836Z,6.5
2022-12-17T21:19:08.323Z,6.8
2022-12-17T21:24:06.756Z,7.1
2022-12-17T21:29:04.934Z,7.3
2022-12-17T21:34:03.201Z,7.4
2022-12-17T21:39:01.386Z,7.4
2022-12-17T21:43:59.836Z,7.5
2022-12-17T21:48:58.334Z,7.6
2022-12-17T21:53:56.750Z,7.8
2022-12-17T21:58:55.241Z,7.9
2022-12-17T22:03:54.423Z,7.9
2022-12-17T22:08:52.219Z,7.9
2022-12-17T22:13:50.084Z,7.9
2022-12-17T22:18:48.232Z,7.9
2022-12-17T22:23:49.155Z,7.9
2022-12-17T22:28:46.823Z,7.8
2022-12-17T22:33:58.645Z,7.8
2022-12-17T22:40:09.585Z,7.7
2022-12-17T22:44:33.058Z,7.5
2022-12-17T22:48:39.948Z,7.4
2022-12-17T22:53:38.308Z,7.3
2022-12-17T22:58:36.060Z,7.3
2022-12-17T23:03:34.456Z,7.2
2022-12-17T23:08:32.463Z,7.1
2022-12-17T23:13:30.673Z,7.1
2022-12-17T23:18:28.816Z,7
2022-12-17T23:23:27.250Z,7
2022-12-17T23:28:25.265Z,7
2022-12-17T23:33:23.506Z,6.9
2022-12-17T23:38:21.539Z,6.9
2022-12-17T23:43:19.748Z,6.7
2022-12-17T23:48:17.736Z,6.6
2022-12-17T23:53:15.968Z,6.5
2022-12-17T23:58:14.182Z,6.5
